sensor_id;sensor_type;location;lat;lon;timestamp;pressure;altitude;pressure_sealevel;temperature;humidity
56719;BME280;42597;40.636;0.278;2023-01-28T00:01:04;97102.31;;;5.80;52.11
56719;BME280;42597;40.636;0.278;2023-01-28T00:03:30;97116.06;;;6.05;52.18
56719;BME280;42597;40.636;0.278;2023-01-28T00:06:04;97113.16;;;5.66;52.70
56719;BME280;42597;40.636;0.278;2023-01-28T00:08:30;97113.25;;;5.18;55.53
56719;BME280;42597;40.636;0.278;2023-01-28T00:11:01;97116.81;;;6.87;54.51
56719;BME280;42597;40.636;0.278;2023-01-28T00:13:27;97120.28;;;5.80;52.06
56719;BME280;42597;40.636;0.278;2023-01-28T00:15:54;97121.00;;;5.28;53.24
56719;BME280;42597;40.636;0.278;2023-01-28T00:18:21;97116.50;;;5.81;53.79
56719;BME280;42597;40.636;0.278;2023-01-28T00:23:21;97103.88;;;6.33;56.97
56719;BME280;42597;40.636;0.278;2023-01-28T00:25:47;97108.00;;;5.87;54.05
56719;BME280;42597;40.636;0.278;2023-01-28T00:28:13;97110.81;;;5.65;54.08
56719;BME280;42597;40.636;0.278;2023-01-28T00:30:38;97106.22;;;6.90;55.84
56719;BME280;42597;40.636;0.278;2023-01-28T00:33:03;97107.97;;;5.70;55.22
56719;BME280;42597;40.636;0.278;2023-01-28T00:35:29;97110.06;;;6.08;53.70
56719;BME280;42597;40.636;0.278;2023-01-28T00:37:54;97108.00;;;5.87;55.15
56719;BME280;42597;40.636;0.278;2023-01-28T00:40:20;97108.81;;;6.05;55.60
56719;BME280;42597;40.636;0.278;2023-01-28T00:42:45;97090.91;;;5.31;54.18
56719;BME280;42597;40.636;0.278;2023-01-28T00:45:11;97092.47;;;5.15;56.51
56719;BME280;42597;40.636;0.278;2023-01-28T00:47:36;97110.53;;;5.01;55.04
56719;BME280;42597;40.636;0.278;2023-01-28T00:50:03;97103.59;;;5.91;58.08
56719;BME280;42597;40.636;0.278;2023-01-28T00:52:28;97106.56;;;5.90;55.42
56719;BME280;42597;40.636;0.278;2023-01-28T00:54:54;97083.97;;;6.34;56.38
56719;BME280;42597;40.636;0.278;2023-01-28T00:57:21;97098.03;;;6.40;52.63
56719;BME280;42597;40.636;0.278;2023-01-28T00:59:47;97076.72;;;6.82;61.54
56719;BME280;42597;40.636;0.278;2023-01-28T01:02:12;97099.16;;;5.78;53.11
56719;BME280;42597;40.636;0.278;2023-01-28T01:04:39;97093.94;;;6.34;57.37
56719;BME280;42597;40.636;0.278;2023-01-28T01:07:05;97088.91;;;6.24;56.17
56719;BME280;42597;40.636;0.278;2023-01-28T01:09:31;97084.94;;;6.30;57.72
56719;BME280;42597;40.636;0.278;2023-01-28T01:11:57;97103.09;;;6.88;57.24
56719;BME280;42597;40.636;0.278;2023-01-28T01:14:22;97093.47;;;5.88;55.04
56719;BME280;42597;40.636;0.278;2023-01-28T01:16:48;97094.44;;;6.27;53.46
56719;BME280;42597;40.636;0.278;2023-01-28T01:19:13;97090.19;;;6.73;54.03
56719;BME280;42597;40.636;0.278;2023-01-28T01:21:39;97086.19;;;5.28;54.06
56719;BME280;42597;40.636;0.278;2023-01-28T01:24:04;97086.81;;;5.42;56.92
56719;BME280;42597;40.636;0.278;2023-01-28T01:26:30;97099.19;;;6.04;54.17
56719;BME280;42597;40.636;0.278;2023-01-28T01:28:55;97095.06;;;5.72;56.82
56719;BME280;42597;40.636;0.278;2023-01-28T01:31:21;97094.97;;;5.20;54.36
56719;BME280;42597;40.636;0.278;2023-01-28T01:33:49;97089.22;;;5.79;56.88
56719;BME280;42597;40.636;0.278;2023-01-28T01:36:16;97098.13;;;5.22;54.14
56719;BME280;42597;40.636;0.278;2023-01-28T01:38:44;97113.50;;;6.34;55.83
56719;BME280;42597;40.636;0.278;2023-01-28T01:41:22;97087.78;;;5.47;59.14
56719;BME280;42597;40.636;0.278;2023-01-28T01:43:51;97095.78;;;6.98;56.80
56719;BME280;42597;40.636;0.278;2023-01-28T01:46:25;97107.88;;;5.92;54.83
56719;BME280;42597;40.636;0.278;2023-01-28T01:48:54;97094.88;;;6.29;52.87
56719;BME280;42597;40.636;0.278;2023-01-28T01:51:24;97104.91;;;6.58;52.93
56719;BME280;42597;40.636;0.278;2023-01-28T01:53:53;97111.16;;;6.07;56.13
56719;BME280;42597;40.636;0.278;2023-01-28T01:56:23;97103.06;;;5.55;56.07
56719;BME280;42597;40.636;0.278;2023-01-28T01:58:53;97086.88;;;6.12;55.64
56719;BME280;42597;40.636;0.278;2023-01-28T02:01:22;97101.53;;;6.06;59.04
56719;BME280;42597;40.636;0.278;2023-01-28T02:06:27;97093.88;;;5.12;55.50
56719;BME280;42597;40.636;0.278;2023-01-28T02:08:54;97122.50;;;5.03;55.10
56719;BME280;42597;40.636;0.278;2023-01-28T02:11:20;97122.69;;;5.07;55.04
56719;BME280;42597;40.636;0.278;2023-01-28T02:13:50;97113.38;;;5.87;57.27
56719;BME280;42597;40.636;0.278;2023-01-28T02:16:18;97138.94;;;5.93;53.19
56719;BME280;42597;40.636;0.278;2023-01-28T02:18:44;97108.56;;;5.32;53.12
56719;BME280;42597;40.636;0.278;2023-01-28T02:29:26;97125.88;;;5.26;58.00
56719;BME280;42597;40.636;0.278;2023-01-28T02:32:03;97111.09;;;6.50;55.77
56719;BME280;42597;40.636;0.278;2023-01-28T02:34:37;97114.16;;;6.05;54.38
56719;BME280;42597;40.636;0.278;2023-01-28T02:37:22;97109.31;;;6.72;54.52
56719;BME280;42597;40.636;0.278;2023-01-28T02:40:09;97121.38;;;5.53;54.47
56719;BME280;42597;40.636;0.278;2023-01-28T02:42:37;97139.72;;;6.20;55.75
56719;BME280;42597;40.636;0.278;2023-01-28T02:45:30;97128.22;;;5.93;54.43
56719;BME280;42597;40.636;0.278;2023-01-28T02:48:17;97124.56;;;6.07;58.70
56719;BME280;42597;40.636;0.278;2023-01-28T02:51:01;97117.47;;;5.93;58.20
56719;BME280;42597;40.636;0.278;2023-01-28T02:53:39;97106.09;;;5.79;52.76
56719;BME280;42597;40.636;0.278;2023-01-28T02:59:16;97124.91;;;5.22;54.88
56719;BME280;42597;40.636;0.278;2023-01-28T03:02:25;97114.25;;;5.39;58.82
56719;BME280;42597;40.636;0.278;2023-01-28T03:07:34;97112.28;;;6.06;55.60
56719;BME280;42597;40.636;0.278;2023-01-28T03:10:02;97101.53;;;7.17;57.94
56719;BME280;42597;40.636;0.278;2023-01-28T03:12:31;97103.94;;;7.10;55.42
56719;BME280;42597;40.636;0.278;2023-01-28T03:15:21;97101.03;;;5.86;53.32
56719;BME280;42597;40.636;0.278;2023-01-28T03:24:02;97105.31;;;6.13;55.78
56719;BME280;42597;40.636;0.278;2023-01-28T03:29:43;97095.31;;;6.49;56.43
56719;BME280;42597;40.636;0.278;2023-01-28T03:32:29;97088.13;;;5.97;54.20
56719;BME280;42597;40.636;0.278;2023-01-28T03:35:16;97110.97;;;6.29;55.81
56719;BME280;42597;40.636;0.278;2023-01-28T03:38:03;97101.09;;;6.04;55.93
56719;BME280;42597;40.636;0.278;2023-01-28T03:43:14;97113.06;;;5.14;55.41
56719;BME280;42597;40.636;0.278;2023-01-28T03:45:40;97101.22;;;6.25;54.44
56719;BME280;42597;40.636;0.278;2023-01-28T03:48:06;97119.00;;;6.47;54.82
56719;BME280;42597;40.636;0.278;2023-01-28T03:50:32;97106.22;;;6.35;56.26
56719;BME280;42597;40.636;0.278;2023-01-28T03:52:58;97127.97;;;4.58;56.26
56719;BME280;42597;40.636;0.278;2023-01-28T03:55:36;97100.25;;;5.51;54.30
56719;BME280;42597;40.636;0.278;2023-01-28T03:58:03;97109.19;;;5.29;55.40
56719;BME280;42597;40.636;0.278;2023-01-28T04:00:30;97108.91;;;6.43;53.15
56719;BME280;42597;40.636;0.278;2023-01-28T04:03:04;97136.09;;;4.76;55.50
56719;BME280;42597;40.636;0.278;2023-01-28T04:08:22;97124.03;;;5.35;53.99
56719;BME280;42597;40.636;0.278;2023-01-28T04:10:48;97084.63;;;4.79;57.60
56719;BME280;42597;40.636;0.278;2023-01-28T04:13:14;97076.19;;;5.03;55.32
56719;BME280;42597;40.636;0.278;2023-01-28T04:15:41;97093.50;;;5.97;56.89
56719;BME280;42597;40.636;0.278;2023-01-28T04:18:08;97102.13;;;4.93;56.88
56719;BME280;42597;40.636;0.278;2023-01-28T04:20:34;97097.91;;;5.67;56.49
56719;BME280;42597;40.636;0.278;2023-01-28T04:23:00;97103.28;;;5.10;57.02
56719;BME280;42597;40.636;0.278;2023-01-28T04:25:26;97087.75;;;5.29;56.06
56719;BME280;42597;40.636;0.278;2023-01-28T04:27:52;97109.63;;;4.43;57.19
56719;BME280;42597;40.636;0.278;2023-01-28T04:30:18;97079.91;;;6.28;59.59
56719;BME280;42597;40.636;0.278;2023-01-28T04:32:45;97096.03;;;5.93;56.72
56719;BME280;42597;40.636;0.278;2023-01-28T04:35:11;97088.72;;;6.37;57.13
56719;BME280;42597;40.636;0.278;2023-01-28T04:37:40;97100.25;;;5.60;53.87
56719;BME280;42597;40.636;0.278;2023-01-28T04:40:06;97122.72;;;5.24;57.23
56719;BME280;42597;40.636;0.278;2023-01-28T04:42:32;97113.34;;;6.39;55.82
56719;BME280;42597;40.636;0.278;2023-01-28T04:44:57;97114.16;;;5.05;56.59
56719;BME280;42597;40.636;0.278;2023-01-28T04:47:23;97124.50;;;4.58;56.55
56719;BME280;42597;40.636;0.278;2023-01-28T04:49:48;97116.75;;;4.48;56.39
56719;BME280;42597;40.636;0.278;2023-01-28T04:52:14;97123.53;;;5.33;59.18
56719;BME280;42597;40.636;0.278;2023-01-28T04:54:40;97132.16;;;5.22;55.85
56719;BME280;42597;40.636;0.278;2023-01-28T04:57:06;97124.28;;;6.08;59.20
56719;BME280;42597;40.636;0.278;2023-01-28T04:59:31;97101.38;;;5.76;53.56
56719;BME280;42597;40.636;0.278;2023-01-28T05:01:57;97123.75;;;5.63;54.59
56719;BME280;42597;40.636;0.278;2023-01-28T05:04:22;97116.84;;;5.79;54.30
56719;BME280;42597;40.636;0.278;2023-01-28T05:06:48;97101.13;;;7.36;57.25
56719;BME280;42597;40.636;0.278;2023-01-28T05:09:13;97112.25;;;5.88;57.25
56719;BME280;42597;40.636;0.278;2023-01-28T05:11:39;97148.69;;;4.75;55.41
56719;BME280;42597;40.636;0.278;2023-01-28T05:14:04;97132.41;;;5.51;56.23
56719;BME280;42597;40.636;0.278;2023-01-28T05:16:30;97130.25;;;6.14;56.63
56719;BME280;42597;40.636;0.278;2023-01-28T05:18:56;97131.81;;;6.32;52.03
56719;BME280;42597;40.636;0.278;2023-01-28T05:21:22;97121.09;;;5.98;53.43
56719;BME280;42597;40.636;0.278;2023-01-28T05:23:47;97129.06;;;5.45;55.30
56719;BME280;42597;40.636;0.278;2023-01-28T05:26:13;97136.41;;;6.14;53.97
56719;BME280;42597;40.636;0.278;2023-01-28T05:28:38;97130.56;;;6.21;57.94
56719;BME280;42597;40.636;0.278;2023-01-28T05:31:05;97137.09;;;4.88;56.95
56719;BME280;42597;40.636;0.278;2023-01-28T05:33:31;97137.38;;;5.92;59.61
56719;BME280;42597;40.636;0.278;2023-01-28T05:35:57;97129.94;;;6.15;57.29
56719;BME280;42597;40.636;0.278;2023-01-28T05:38:23;97138.34;;;5.31;55.97
56719;BME280;42597;40.636;0.278;2023-01-28T05:40:48;97116.69;;;6.28;57.65
56719;BME280;42597;40.636;0.278;2023-01-28T05:43:14;97132.84;;;7.42;58.39
56719;BME280;42597;40.636;0.278;2023-01-28T05:45:40;97135.13;;;5.11;54.51
56719;BME280;42597;40.636;0.278;2023-01-28T05:48:06;97136.56;;;5.92;55.95
56719;BME280;42597;40.636;0.278;2023-01-28T05:50:32;97156.22;;;5.04;54.53
56719;BME280;42597;40.636;0.278;2023-01-28T05:52:57;97155.91;;;5.14;54.51
56719;BME280;42597;40.636;0.278;2023-01-28T05:55:23;97145.38;;;5.18;53.78
56719;BME280;42597;40.636;0.278;2023-01-28T05:57:49;97135.50;;;6.75;59.75
56719;BME280;42597;40.636;0.278;2023-01-28T06:00:15;97152.16;;;6.33;53.83
56719;BME280;42597;40.636;0.278;2023-01-28T09:45:50;97332.34;;;6.01;49.70
56719;BME280;42597;40.636;0.278;2023-01-28T09:48:20;97339.06;;;6.47;49.64
56719;BME280;42597;40.636;0.278;2023-01-28T09:50:49;97333.88;;;7.02;49.56
56719;BME280;42597;40.636;0.278;2023-01-28T09:53:17;97348.09;;;5.93;49.23
56719;BME280;42597;40.636;0.278;2023-01-28T09:56:14;97356.00;;;6.56;50.61
56719;BME280;42597;40.636;0.278;2023-01-28T09:58:43;97356.06;;;6.16;50.40
56719;BME280;42597;40.636;0.278;2023-01-28T10:09:33;97343.53;;;6.77;50.79
56719;BME280;42597;40.636;0.278;2023-01-28T10:15:32;97345.09;;;6.61;51.41
56719;BME280;42597;40.636;0.278;2023-01-28T10:18:08;97348.25;;;5.66;48.97
56719;BME280;42597;40.636;0.278;2023-01-28T10:20:58;97357.09;;;5.98;48.88
56719;BME280;42597;40.636;0.278;2023-01-28T10:23:40;97350.22;;;6.23;49.38
56719;BME280;42597;40.636;0.278;2023-01-28T10:26:21;97359.38;;;6.13;49.36
56719;BME280;42597;40.636;0.278;2023-01-28T10:28:58;97362.03;;;6.13;48.24
56719;BME280;42597;40.636;0.278;2023-01-28T10:31:30;97367.00;;;6.28;47.92
56719;BME280;42597;40.636;0.278;2023-01-28T10:33:59;97367.78;;;6.37;49.14
56719;BME280;42597;40.636;0.278;2023-01-28T10:36:25;97356.44;;;7.45;49.15
56719;BME280;42597;40.636;0.278;2023-01-28T10:38:51;97352.81;;;7.23;47.96
56719;BME280;42597;40.636;0.278;2023-01-28T10:41:20;97343.13;;;7.57;49.15
56719;BME280;42597;40.636;0.278;2023-01-28T10:43:47;97355.84;;;7.13;47.14
56719;BME280;42597;40.636;0.278;2023-01-28T10:46:21;97354.25;;;7.21;47.62
56719;BME280;42597;40.636;0.278;2023-01-28T10:49:17;97351.38;;;7.52;47.11
56719;BME280;42597;40.636;0.278;2023-01-28T10:51:45;97355.28;;;7.54;46.93
56719;BME280;42597;40.636;0.278;2023-01-28T10:54:29;97358.34;;;8.29;50.22
56719;BME280;42597;40.636;0.278;2023-01-28T10:56:59;97363.16;;;8.74;49.87
56719;BME280;42597;40.636;0.278;2023-01-28T10:59:33;97361.22;;;7.13;48.43
56719;BME280;42597;40.636;0.278;2023-01-28T11:02:23;97358.47;;;7.95;47.49
56719;BME280;42597;40.636;0.278;2023-01-28T11:05:35;97357.63;;;7.73;47.08
56719;BME280;42597;40.636;0.278;2023-01-28T11:07:35;97357.13;;;8.18;46.80
56719;BME280;42597;40.636;0.278;2023-01-28T11:10:01;97368.97;;;8.76;49.74
56719;BME280;42597;40.636;0.278;2023-01-28T11:12:29;97358.63;;;8.36;49.43
56719;BME280;42597;40.636;0.278;2023-01-28T11:14:57;97364.06;;;7.89;46.64
56719;BME280;42597;40.636;0.278;2023-01-28T11:17:25;97353.94;;;8.16;46.28
56719;BME280;42597;40.636;0.278;2023-01-28T11:19:53;97360.53;;;8.27;45.74
56719;BME280;42597;40.636;0.278;2023-01-28T11:22:32;97357.38;;;8.84;49.52
56719;BME280;42597;40.636;0.278;2023-01-28T11:25:02;97354.72;;;8.55;50.37
56719;BME280;42597;40.636;0.278;2023-01-28T11:27:30;97361.44;;;8.90;49.00
56719;BME280;42597;40.636;0.278;2023-01-28T11:29:57;97344.16;;;9.46;49.37
56719;BME280;42597;40.636;0.278;2023-01-28T11:32:28;97351.31;;;8.87;45.35
56719;BME280;42597;40.636;0.278;2023-01-28T11:34:55;97348.25;;;8.77;47.94
56719;BME280;42597;40.636;0.278;2023-01-28T11:37:24;97360.53;;;8.27;44.47
56719;BME280;42597;40.636;0.278;2023-01-28T11:40:17;97344.78;;;8.17;45.21
56719;BME280;42597;40.636;0.278;2023-01-28T11:42:45;97336.34;;;8.78;44.92
56719;BME280;42597;40.636;0.278;2023-01-28T11:51:06;97333.03;;;8.72;47.79
56719;BME280;42597;40.636;0.278;2023-01-28T11:56:24;97335.16;;;8.87;46.36
56719;BME280;42597;40.636;0.278;2023-01-28T12:04:32;97316.03;;;8.80;45.67
56719;BME280;42597;40.636;0.278;2023-01-28T12:12:31;97305.81;;;9.07;45.30
56719;BME280;42597;40.636;0.278;2023-01-28T12:18:10;97308.44;;;8.61;44.02
56719;BME280;42597;40.636;0.278;2023-01-28T12:26:12;97302.97;;;8.70;42.76
56719;BME280;42597;40.636;0.278;2023-01-28T12:34:22;97296.06;;;8.10;44.98
56719;BME280;42597;40.636;0.278;2023-01-28T12:39:59;97285.81;;;9.41;44.88
56719;BME280;42597;40.636;0.278;2023-01-28T12:42:52;97279.56;;;9.74;48.20
56719;BME280;42597;40.636;0.278;2023-01-28T12:45:57;97275.84;;;10.27;42.45
56719;BME280;42597;40.636;0.278;2023-01-28T12:48:36;97274.59;;;9.63;45.93
56719;BME280;42597;40.636;0.278;2023-01-28T12:51:48;97275.19;;;9.57;46.61
56719;BME280;42597;40.636;0.278;2023-01-28T12:53:57;97278.72;;;9.36;46.51
56719;BME280;42597;40.636;0.278;2023-01-28T12:56:39;97271.78;;;9.48;46.30
56719;BME280;42597;40.636;0.278;2023-01-28T12:59:14;97266.09;;;9.86;47.06
56719;BME280;42597;40.636;0.278;2023-01-28T13:10:31;97269.44;;;9.71;45.77
56719;BME280;42597;40.636;0.278;2023-01-28T13:13:01;97274.03;;;9.58;43.50
56719;BME280;42597;40.636;0.278;2023-01-28T13:15:27;97273.03;;;9.87;44.69
56719;BME280;42597;40.636;0.278;2023-01-28T13:17:57;97263.50;;;9.77;45.43
56719;BME280;42597;40.636;0.278;2023-01-28T13:23:19;97263.69;;;9.72;45.30
56719;BME280;42597;40.636;0.278;2023-01-28T13:25:51;97257.88;;;9.70;48.10
56719;BME280;42597;40.636;0.278;2023-01-28T13:28:31;97268.53;;;9.79;45.05
56719;BME280;42597;40.636;0.278;2023-01-28T13:31:12;97269.19;;;9.39;44.48
56719;BME280;42597;40.636;0.278;2023-01-28T13:33:44;97264.38;;;9.57;45.36
56719;BME280;42597;40.636;0.278;2023-01-28T13:38:43;97265.47;;;9.44;45.94
56719;BME280;42597;40.636;0.278;2023-01-28T13:41:09;97261.13;;;9.06;42.69
56719;BME280;42597;40.636;0.278;2023-01-28T13:43:40;97262.00;;;9.43;44.82
56719;BME280;42597;40.636;0.278;2023-01-28T13:46:12;97259.81;;;9.24;44.40
56719;BME280;42597;40.636;0.278;2023-01-28T13:48:45;97248.88;;;10.03;48.75
56719;BME280;42597;40.636;0.278;2023-01-28T13:51:34;97264.38;;;9.57;43.08
56719;BME280;42597;40.636;0.278;2023-01-28T13:54:10;97274.84;;;9.13;43.65
56719;BME280;42597;40.636;0.278;2023-01-28T14:12:35;97271.69;;;9.11;42.95
56719;BME280;42597;40.636;0.278;2023-01-28T14:17:45;97276.47;;;9.26;41.86
56719;BME280;42597;40.636;0.278;2023-01-28T14:22:48;97266.34;;;9.23;43.13
56719;BME280;42597;40.636;0.278;2023-01-28T14:25:42;97263.03;;;10.00;48.40
56719;BME280;42597;40.636;0.278;2023-01-28T14:28:24;97268.31;;;9.84;46.64
56719;BME280;42597;40.636;0.278;2023-01-28T14:31:02;97274.28;;;9.53;42.76
56719;BME280;42597;40.636;0.278;2023-01-28T14:33:30;97274.75;;;9.22;43.67
56719;BME280;42597;40.636;0.278;2023-01-28T14:35:57;97273.16;;;9.91;45.45
56719;BME280;42597;40.636;0.278;2023-01-28T14:38:23;97278.75;;;9.49;43.77
56719;BME280;42597;40.636;0.278;2023-01-28T14:40:52;97277.81;;;9.45;42.21
56719;BME280;42597;40.636;0.278;2023-01-28T14:43:24;97287.16;;;9.47;43.34
56719;BME280;42597;40.636;0.278;2023-01-28T14:57:20;97283.28;;;9.69;45.06
56719;BME280;42597;40.636;0.278;2023-01-28T14:59:53;97280.44;;;9.53;43.30
56719;BME280;42597;40.636;0.278;2023-01-28T15:02:22;97285.97;;;9.57;43.65
56719;BME280;42597;40.636;0.278;2023-01-28T15:04:49;97285.88;;;9.32;43.08
56719;BME280;42597;40.636;0.278;2023-01-28T15:07:24;97287.53;;;9.12;42.39
56719;BME280;42597;40.636;0.278;2023-01-28T15:10:13;97286.56;;;9.17;43.03
56719;BME280;42597;40.636;0.278;2023-01-28T15:12:41;97293.09;;;9.40;43.94
56719;BME280;42597;40.636;0.278;2023-01-28T15:15:21;97293.06;;;9.74;45.92
56719;BME280;42597;40.636;0.278;2023-01-28T15:17:48;97295.19;;;9.80;44.14
56719;BME280;42597;40.636;0.278;2023-01-28T15:20:23;97297.66;;;9.73;43.08
56719;BME280;42597;40.636;0.278;2023-01-28T15:22:50;97278.97;;;10.54;48.17
56719;BME280;42597;40.636;0.278;2023-01-28T15:25:20;97284.06;;;10.19;47.54
56719;BME280;42597;40.636;0.278;2023-01-28T15:27:46;97279.09;;;9.59;42.81
56719;BME280;42597;40.636;0.278;2023-01-28T15:30:23;97286.19;;;9.64;43.50
56719;BME280;42597;40.636;0.278;2023-01-28T15:33:12;97305.75;;;9.61;42.86
56719;BME280;42597;40.636;0.278;2023-01-28T15:35:44;97299.88;;;10.57;48.00
56719;BME280;42597;40.636;0.278;2023-01-28T15:38:10;97306.22;;;10.36;46.34
56719;BME280;42597;40.636;0.278;2023-01-28T15:40:41;97315.28;;;9.58;42.88
56719;BME280;42597;40.636;0.278;2023-01-28T15:43:31;97315.19;;;9.67;42.99
56719;BME280;42597;40.636;0.278;2023-01-28T15:45:59;97314.31;;;10.00;46.83
56719;BME280;42597;40.636;0.278;2023-01-28T15:48:29;97325.72;;;9.48;43.82
56719;BME280;42597;40.636;0.278;2023-01-28T15:51:08;97319.22;;;9.49;43.71
56719;BME280;42597;40.636;0.278;2023-01-28T15:53:44;97323.56;;;9.08;47.83
56719;BME280;42597;40.636;0.278;2023-01-28T15:56:12;97321.22;;;8.85;50.83
56719;BME280;42597;40.636;0.278;2023-01-28T15:58:39;97327.66;;;8.72;51.37
56719;BME280;42597;40.636;0.278;2023-01-28T16:03:36;97324.72;;;8.65;52.77
56719;BME280;42597;40.636;0.278;2023-01-28T16:06:04;97332.53;;;8.58;52.96
56719;BME280;42597;40.636;0.278;2023-01-28T16:08:53;97347.00;;;8.74;53.26
56719;BME280;42597;40.636;0.278;2023-01-28T16:11:29;97342.38;;;8.54;54.35
56719;BME280;42597;40.636;0.278;2023-01-28T16:13:55;97340.81;;;8.53;54.74
56719;BME280;42597;40.636;0.278;2023-01-28T16:16:32;97349.09;;;8.69;54.50
56719;BME280;42597;40.636;0.278;2023-01-28T16:19:06;97350.66;;;8.49;54.10
56719;BME280;42597;40.636;0.278;2023-01-28T16:21:34;97346.91;;;8.32;55.00
56719;BME280;42597;40.636;0.278;2023-01-28T16:24:25;97360.50;;;8.45;51.06
56719;BME280;42597;40.636;0.278;2023-01-28T16:27:19;97357.97;;;8.39;53.94
56719;BME280;42597;40.636;0.278;2023-01-28T16:29:45;97355.94;;;8.36;54.29
56719;BME280;42597;40.636;0.278;2023-01-28T16:34:55;97363.63;;;8.17;56.80
56719;BME280;42597;40.636;0.278;2023-01-28T16:37:21;97364.75;;;8.46;55.68
56719;BME280;42597;40.636;0.278;2023-01-28T16:39:47;97362.16;;;8.58;55.32
56719;BME280;42597;40.636;0.278;2023-01-28T16:42:13;97372.34;;;8.14;57.31
56719;BME280;42597;40.636;0.278;2023-01-28T16:44:38;97374.78;;;7.98;58.22
56719;BME280;42597;40.636;0.278;2023-01-28T16:47:04;97382.75;;;7.77;59.33
56719;BME280;42597;40.636;0.278;2023-01-28T16:49:30;97378.28;;;7.90;59.24
56719;BME280;42597;40.636;0.278;2023-01-28T16:51:56;97385.09;;;7.87;59.34
56719;BME280;42597;40.636;0.278;2023-01-28T16:54:22;97381.88;;;8.03;59.25
56719;BME280;42597;40.636;0.278;2023-01-28T16:56:48;97380.31;;;8.02;58.70
56719;BME280;42597;40.636;0.278;2023-01-28T16:59:15;97378.88;;;7.96;59.00
56719;BME280;42597;40.636;0.278;2023-01-28T17:01:41;97379.72;;;8.26;58.39
56719;BME280;42597;40.636;0.278;2023-01-28T17:04:07;97383.00;;;8.40;57.50
56719;BME280;42597;40.636;0.278;2023-01-28T17:06:35;97389.13;;;8.11;58.44
56719;BME280;42597;40.636;0.278;2023-01-28T17:09:03;97392.06;;;7.88;59.63
56719;BME280;42597;40.636;0.278;2023-01-28T17:11:30;97399.34;;;7.79;59.88
56719;BME280;42597;40.636;0.278;2023-01-28T17:13:55;97392.69;;;7.94;59.23
56719;BME280;42597;40.636;0.278;2023-01-28T17:16:21;97393.66;;;7.89;59.11
56719;BME280;42597;40.636;0.278;2023-01-28T17:18:50;97400.97;;;7.80;59.95
56719;BME280;42597;40.636;0.278;2023-01-28T17:21:15;97397.16;;;7.81;60.29
56719;BME280;42597;40.636;0.278;2023-01-28T17:23:41;97417.25;;;7.66;60.24
56719;BME280;42597;40.636;0.278;2023-01-28T17:26:08;97415.38;;;7.67;60.66
56719;BME280;42597;40.636;0.278;2023-01-28T17:28:34;97421.06;;;7.74;60.04
56719;BME280;42597;40.636;0.278;2023-01-28T17:31:08;97426.91;;;7.76;60.22
56719;BME280;42597;40.636;0.278;2023-01-28T17:33:36;97420.75;;;7.67;60.42
56719;BME280;42597;40.636;0.278;2023-01-28T17:36:02;97434.53;;;7.57;61.13
56719;BME280;42597;40.636;0.278;2023-01-28T17:38:28;97438.19;;;7.52;61.10
56719;BME280;42597;40.636;0.278;2023-01-28T17:41:04;97440.72;;;7.49;61.13
56719;BME280;42597;40.636;0.278;2023-01-28T17:43:30;97446.72;;;7.37;61.18
56719;BME280;42597;40.636;0.278;2023-01-28T17:45:56;97451.78;;;7.30;62.13
56719;BME280;42597;40.636;0.278;2023-01-28T17:48:22;97451.94;;;7.33;62.23
56719;BME280;42597;40.636;0.278;2023-01-28T17:50:47;97460.16;;;7.28;61.90
56719;BME280;42597;40.636;0.278;2023-01-28T17:53:13;97459.84;;;7.56;61.59
56719;BME280;42597;40.636;0.278;2023-01-28T17:55:39;97467.91;;;7.47;61.03
56719;BME280;42597;40.636;0.278;2023-01-28T17:58:04;97473.13;;;7.43;62.57
56719;BME280;42597;40.636;0.278;2023-01-28T18:00:30;97476.28;;;7.63;61.35
56719;BME280;42597;40.636;0.278;2023-01-28T18:02:56;97469.31;;;7.62;60.84
56719;BME280;42597;40.636;0.278;2023-01-28T18:05:22;97483.25;;;7.47;61.50
56719;BME280;42597;40.636;0.278;2023-01-28T18:07:47;97492.09;;;7.21;62.68
56719;BME280;42597;40.636;0.278;2023-01-28T18:10:15;97491.75;;;7.14;63.19
56719;BME280;42597;40.636;0.278;2023-01-28T18:12:41;97486.56;;;7.09;63.21
56719;BME280;42597;40.636;0.278;2023-01-28T18:15:08;97502.19;;;7.07;63.13
56719;BME280;42597;40.636;0.278;2023-01-28T18:17:34;97508.81;;;7.01;63.15
56719;BME280;42597;40.636;0.278;2023-01-28T18:19:59;97507.78;;;6.79;63.75
56719;BME280;42597;40.636;0.278;2023-01-28T18:22:25;97513.50;;;6.86;63.81
56719;BME280;42597;40.636;0.278;2023-01-28T18:24:50;97510.06;;;6.95;63.38
56719;BME280;42597;40.636;0.278;2023-01-28T18:27:16;97509.09;;;6.90;63.83
56719;BME280;42597;40.636;0.278;2023-01-28T18:29:42;97513.75;;;7.25;62.91
56719;BME280;42597;40.636;0.278;2023-01-28T18:32:07;97514.78;;;6.80;64.30
56719;BME280;42597;40.636;0.278;2023-01-28T18:34:34;97522.41;;;6.96;63.49
56719;BME280;42597;40.636;0.278;2023-01-28T18:37:00;97530.00;;;7.11;63.25
56719;BME280;42597;40.636;0.278;2023-01-28T18:39:28;97531.28;;;7.22;62.97
56719;BME280;42597;40.636;0.278;2023-01-28T18:41:56;97539.78;;;7.07;63.29
56719;BME280;42597;40.636;0.278;2023-01-28T18:44:23;97527.69;;;10.03;60.53
56719;BME280;42597;40.636;0.278;2023-01-28T18:46:50;97534.72;;;10.62;54.83
56719;BME280;42597;40.636;0.278;2023-01-28T18:49:15;97544.84;;;9.15;58.81
56719;BME280;42597;40.636;0.278;2023-01-28T18:51:41;97546.31;;;7.23;62.18
56719;BME280;42597;40.636;0.278;2023-01-28T18:54:10;97552.44;;;7.15;63.15
56719;BME280;42597;40.636;0.278;2023-01-28T18:56:36;97555.50;;;6.11;65.04
56719;BME280;42597;40.636;0.278;2023-01-28T18:59:04;97570.19;;;6.14;66.84
56719;BME280;42597;40.636;0.278;2023-01-28T19:01:31;97567.88;;;6.52;66.00
56719;BME280;42597;40.636;0.278;2023-01-28T19:03:58;97559.50;;;8.67;66.13
56719;BME280;42597;40.636;0.278;2023-01-28T19:06:26;97573.88;;;9.89;60.93
56719;BME280;42597;40.636;0.278;2023-01-28T19:08:54;97579.56;;;10.30;59.11
56719;BME280;42597;40.636;0.278;2023-01-28T19:11:21;97576.81;;;8.96;58.69
56719;BME280;42597;40.636;0.278;2023-01-28T19:13:48;97587.19;;;9.14;56.33
56719;BME280;42597;40.636;0.278;2023-01-28T19:16:13;97594.94;;;6.96;51.92
56719;BME280;42597;40.636;0.278;2023-01-28T19:18:39;97586.69;;;7.75;54.44
56719;BME280;42597;40.636;0.278;2023-01-28T19:21:06;97595.44;;;7.15;52.92
56719;BME280;42597;40.636;0.278;2023-01-28T19:23:32;97596.78;;;6.86;54.06